createdAt,value
2022-12-20T00:01:23.346Z,19.60
2022-12-20T00:04:12.605Z,21.40
2022-12-20T00:06:59.594Z,21.83
2022-12-20T00:09:46.619Z,22.57
2022-12-20T00:12:33.612Z,21.40
2022-12-20T00:15:20.647Z,20.90
2022-12-20T00:18:07.725Z,20.17
2022-12-20T00:20:59.200Z,18.70
2022-12-20T00:23:46.152Z,21.93
2022-12-20T00:26:34.448Z,21.77
2022-12-20T00:29:21.455Z,19.40
2022-12-20T00:32:08.471Z,20.03
2022-12-20T00:34:55.847Z,20.33
2022-12-20T00:37:42.826Z,19.77
2022-12-20T00:40:29.796Z,21.00
2022-12-20T00:43:16.761Z,19.90
2022-12-20T00:46:04.115Z,20.97
2022-12-20T00:48:53.720Z,21.57
2022-12-20T00:51:40.683Z,22.20
2022-12-20T00:54:27.759Z,19.90
2022-12-20T00:57:14.780Z,20.47
2022-12-20T01:00:01.740Z,19.93
2022-12-20T01:02:49.326Z,20.13
2022-12-20T01:05:36.477Z,20.80
2022-12-20T01:08:24.374Z,19.57
2022-12-20T01:11:16.963Z,19.43
2022-12-20T01:14:07.878Z,22.23
2022-12-20T01:16:55.129Z,23.90
2022-12-20T01:19:42.172Z,25.77
2022-12-20T01:22:29.235Z,22.90
2022-12-20T01:25:16.417Z,20.70
2022-12-20T01:28:03.594Z,20.03
2022-12-20T01:30:50.580Z,20.30
2022-12-20T01:33:37.980Z,20.23
2022-12-20T01:36:28.774Z,21.87
2022-12-20T01:39:17.256Z,20.77
2022-12-20T01:42:04.919Z,21.93
2022-12-20T01:44:56.013Z,18.97
2022-12-20T01:47:43.202Z,21.40
2022-12-20T01:50:30.166Z,20.07
2022-12-20T01:53:20.319Z,19.47
2022-12-20T01:56:09.421Z,19.90
2022-12-20T01:58:58.097Z,20.70
2022-12-20T02:01:45.322Z,20.23
2022-12-20T02:04:32.518Z,20.53
2022-12-20T02:07:26.952Z,21.13
2022-12-20T02:10:15.519Z,21.27
2022-12-20T02:13:11.472Z,21.20
2022-12-20T02:15:58.758Z,19.17
2022-12-20T02:18:57.864Z,19.73
2022-12-20T02:22:26.200Z,20.33
2022-12-20T02:25:42.214Z,18.80
2022-12-20T02:28:54.645Z,19.57
2022-12-20T02:31:55.139Z,20.43
2022-12-20T02:34:42.836Z,21.67
2022-12-20T02:37:30.007Z,22.23
2022-12-20T02:40:21.752Z,20.70
2022-12-20T02:43:29.365Z,20.63
2022-12-20T02:46:19.831Z,19.10
2022-12-20T02:49:13.548Z,19.27
2022-12-20T02:52:01.688Z,21.00
2022-12-20T02:54:49.076Z,18.87
2022-12-20T02:58:00.665Z,19.43
2022-12-20T03:00:50.873Z,20.53
2022-12-20T03:03:38.328Z,22.13
2022-12-20T03:06:26.125Z,20.50
2022-12-20T03:09:13.349Z,22.27
2022-12-20T03:12:00.637Z,19.93
2022-12-20T03:14:47.810Z,19.07
2022-12-20T03:17:35.773Z,21.43
2022-12-20T03:20:23.117Z,21.07
2022-12-20T03:23:10.274Z,22.37
2022-12-20T03:25:57.396Z,21.70
2022-12-20T03:28:51.615Z,21.03
2022-12-20T03:31:41.221Z,21.97
2022-12-20T03:34:28.244Z,21.43
2022-12-20T03:37:16.320Z,24.00
2022-12-20T03:40:03.792Z,24.03
2022-12-20T03:42:50.857Z,21.50
2022-12-20T03:45:37.825Z,24.83
2022-12-20T03:48:24.833Z,24.43
2022-12-20T03:51:11.965Z,20.73
2022-12-20T03:53:59.487Z,23.27
2022-12-20T03:57:01.820Z,22.40
2022-12-20T03:59:49.697Z,21.47
2022-12-20T04:02:38.927Z,22.20
2022-12-20T04:05:27.488Z,21.93
2022-12-20T04:08:14.511Z,21.60
2022-12-20T04:11:16.666Z,19.57
2022-12-20T04:14:23.962Z,21.40
2022-12-20T04:17:11.553Z,21.47
2022-12-20T04:19:59.066Z,23.00
2022-12-20T04:22:48.094Z,21.23
2022-12-20T04:25:35.329Z,20.37
2022-12-20T04:28:22.307Z,21.13
2022-12-20T04:31:11.098Z,23.00
2022-12-20T04:33:59.235Z,20.87
2022-12-20T04:36:46.555Z,19.47
2022-12-20T04:39:40.368Z,20.20
2022-12-20T04:42:50.008Z,21.33
2022-12-20T04:45:37.939Z,21.80
2022-12-20T04:51:34.344Z,20.20
2022-12-20T04:54:21.291Z,22.17
2022-12-20T04:57:18.380Z,20.90
2022-12-20T05:00:06.486Z,21.80
2022-12-20T05:02:53.602Z,20.87
2022-12-20T05:05:43.392Z,21.80
2022-12-20T05:08:30.514Z,22.03
2022-12-20T05:11:17.845Z,21.23
2022-12-20T05:14:04.817Z,22.77
2022-12-20T05:16:51.792Z,20.63
2022-12-20T05:19:39.228Z,21.87
2022-12-20T05:22:45.125Z,21.47
2022-12-20T05:25:52.233Z,21.23
2022-12-20T05:28:39.328Z,22.97
2022-12-20T05:31:26.870Z,22.03
2022-12-20T05:34:14.344Z,20.40
2022-12-20T05:37:04.574Z,21.73
2022-12-20T05:39:53.879Z,20.77
2022-12-20T05:42:44.612Z,22.20
2022-12-20T05:45:32.434Z,22.03
2022-12-20T05:48:24.307Z,21.43
2022-12-20T05:51:12.629Z,23.33
2022-12-20T05:54:13.971Z,21.30
2022-12-20T05:57:16.183Z,19.80
2022-12-20T06:00:05.228Z,20.53
2022-12-20T06:02:52.595Z,21.23
2022-12-20T06:05:41.457Z,22.70
2022-12-20T06:08:28.551Z,20.20
2022-12-20T06:11:17.085Z,20.73
2022-12-20T06:14:21.684Z,21.00
2022-12-20T06:17:08.804Z,21.23
2022-12-20T06:19:56.897Z,20.77
2022-12-20T06:22:44.235Z,21.53
2022-12-20T06:25:33.551Z,20.93
2022-12-20T06:28:22.202Z,21.97
2022-12-20T06:31:11.123Z,20.87
2022-12-20T06:34:10.248Z,19.90
2022-12-20T06:37:00.769Z,24.43
2022-12-20T06:39:51.200Z,20.20
2022-12-20T06:42:38.637Z,22.60
2022-12-20T06:45:26.881Z,20.53
2022-12-20T06:48:14.688Z,20.27
2022-12-20T06:51:03.636Z,22.07
2022-12-20T06:53:50.962Z,21.73
2022-12-20T06:56:41.542Z,22.63
2022-12-20T06:59:30.861Z,20.13
2022-12-20T07:02:18.145Z,20.17
2022-12-20T07:05:05.813Z,20.90
2022-12-20T07:07:52.757Z,21.70
2022-12-20T07:10:39.725Z,23.37
2022-12-20T07:13:26.684Z,24.80
2022-12-20T07:16:14.897Z,21.77
2022-12-20T07:19:02.335Z,23.40
2022-12-20T07:21:49.352Z,24.43
2022-12-20T07:24:36.486Z,22.30
2022-12-20T07:27:23.463Z,22.33
2022-12-20T07:30:10.709Z,23.13
2022-12-20T07:32:58.569Z,22.20
2022-12-20T07:35:52.414Z,22.77
2022-12-20T07:38:41.965Z,25.63
2022-12-20T07:41:28.951Z,22.80
2022-12-20T07:44:15.930Z,22.27
2022-12-20T07:47:03.073Z,19.67
2022-12-20T07:49:50.014Z,24.10
2022-12-20T07:52:38.899Z,21.77
2022-12-20T07:55:26.413Z,22.33
2022-12-20T07:58:14.789Z,24.07
2022-12-20T08:01:02.741Z,24.07
2022-12-20T08:03:56.378Z,22.30
2022-12-20T08:06:43.897Z,22.90
2022-12-20T08:09:37.528Z,20.10
2022-12-20T08:12:25.849Z,22.83
2022-12-20T08:15:13.543Z,21.20
2022-12-20T08:18:00.833Z,20.90
2022-12-20T08:20:48.438Z,21.63
2022-12-20T08:23:35.501Z,22.23
2022-12-20T08:26:22.642Z,21.20
2022-12-20T08:29:09.706Z,25.60
2022-12-20T08:31:57.022Z,24.33
2022-12-20T08:34:43.972Z,21.90
2022-12-20T08:37:30.916Z,21.40
2022-12-20T08:40:18.998Z,22.00
2022-12-20T08:43:10.169Z,20.77
2022-12-20T08:45:57.574Z,20.70
2022-12-20T08:48:44.620Z,22.10
2022-12-20T08:51:31.982Z,24.97
2022-12-20T08:54:19.058Z,24.53
2022-12-20T08:57:06.015Z,21.40
2022-12-20T08:59:52.961Z,22.47
2022-12-20T09:02:41.317Z,22.93
2022-12-20T09:05:28.441Z,21.67
2022-12-20T09:08:16.823Z,22.97
2022-12-20T09:11:15.376Z,23.13
2022-12-20T09:14:03.082Z,23.30
2022-12-20T09:16:50.016Z,21.87
2022-12-20T09:19:37.000Z,22.20
2022-12-20T09:22:23.943Z,22.87
2022-12-20T09:25:10.856Z,24.80
2022-12-20T09:27:57.855Z,26.17
2022-12-20T09:30:44.872Z,25.13
2022-12-20T09:33:33.271Z,24.07
2022-12-20T09:36:21.752Z,25.43
2022-12-20T09:39:09.329Z,25.53
2022-12-20T09:41:57.639Z,25.83
2022-12-20T09:44:44.664Z,23.50
2022-12-20T09:47:34.546Z,22.23
2022-12-20T09:50:37.414Z,22.50
2022-12-20T09:53:58.300Z,23.10
2022-12-20T09:56:58.684Z,21.60
2022-12-20T09:59:49.464Z,23.07
2022-12-20T10:06:06.909Z,23.97
2022-12-20T10:08:56.754Z,22.10
2022-12-20T10:12:00.731Z,21.40
2022-12-20T10:15:13.665Z,21.40
2022-12-20T10:18:06.767Z,23.40
2022-12-20T10:21:21.323Z,25.20
2022-12-20T10:24:14.516Z,22.50
2022-12-20T10:27:15.192Z,21.33
2022-12-20T10:30:02.165Z,24.33
2022-12-20T10:32:51.900Z,23.10
2022-12-20T10:35:41.019Z,21.73
2022-12-20T10:38:46.156Z,22.47
2022-12-20T10:41:44.914Z,21.37
2022-12-20T10:44:32.787Z,20.40
2022-12-20T10:47:36.054Z,20.93
2022-12-20T10:50:25.140Z,19.97
2022-12-20T10:53:19.182Z,21.43
2022-12-20T10:56:09.103Z,20.23
2022-12-20T10:59:02.586Z,20.47
2022-12-20T11:01:50.456Z,24.97
2022-12-20T11:04:38.776Z,22.90
2022-12-20T11:07:29.027Z,23.00
2022-12-20T11:10:24.328Z,23.90
2022-12-20T11:13:25.895Z,23.97
2022-12-20T11:16:38.240Z,23.43
2022-12-20T11:19:33.502Z,22.47
2022-12-20T11:22:43.768Z,22.20
2022-12-20T11:25:53.653Z,25.13
2022-12-20T11:28:59.876Z,25.03
2022-12-20T11:32:16.545Z,21.43
2022-12-20T11:35:11.306Z,22.63
2022-12-20T11:38:22.181Z,20.60
2022-12-20T11:41:30.678Z,20.77
2022-12-20T11:44:53.940Z,18.90
2022-12-20T11:48:39.189Z,22.57
2022-12-20T11:51:46.753Z,18.53
2022-12-20T11:54:42.314Z,19.63
2022-12-20T11:58:16.460Z,20.07
2022-12-20T12:01:13.786Z,20.43
2022-12-20T12:04:12.572Z,22.10
2022-12-20T12:07:06.541Z,22.10
2022-12-20T12:10:22.093Z,20.43
2022-12-20T12:13:23.337Z,26.40
2022-12-20T12:16:22.950Z,19.17
2022-12-20T12:19:12.825Z,20.17
2022-12-20T12:22:05.816Z,22.33
2022-12-20T12:25:00.022Z,21.07
2022-12-20T12:27:47.002Z,19.90
2022-12-20T12:30:47.363Z,20.43
2022-12-20T12:33:42.226Z,21.20
2022-12-20T12:36:47.266Z,18.57
2022-12-20T12:40:01.071Z,22.10
2022-12-20T12:43:09.716Z,21.87
2022-12-20T12:46:01.425Z,21.83
2022-12-20T12:49:06.980Z,22.13
2022-12-20T12:52:00.099Z,20.93
2022-12-20T12:54:47.090Z,22.60
2022-12-20T12:57:57.981Z,24.00
2022-12-20T13:00:56.625Z,21.30
2022-12-20T13:04:11.231Z,22.77
2022-12-20T13:07:01.758Z,23.30
2022-12-20T13:09:49.118Z,21.73
2022-12-20T13:12:39.027Z,21.97
2022-12-20T13:15:25.934Z,21.90
2022-12-20T13:18:12.864Z,19.97
2022-12-20T13:21:30.675Z,23.50
2022-12-20T13:24:55.638Z,23.33
2022-12-20T13:27:42.624Z,25.50
2022-12-20T13:30:30.387Z,24.40
2022-12-20T13:33:40.204Z,21.93
2022-12-20T13:36:37.937Z,22.77
2022-12-20T13:39:25.299Z,22.20
2022-12-20T13:42:30.957Z,24.30
2022-12-20T13:45:18.524Z,22.57
2022-12-20T13:48:11.509Z,24.17
2022-12-20T13:50:59.138Z,23.40
2022-12-20T13:53:53.545Z,24.93
2022-12-20T13:56:49.484Z,25.20
2022-12-20T13:59:36.552Z,24.13
2022-12-20T14:02:33.197Z,21.57
2022-12-20T14:05:26.338Z,23.23
2022-12-20T14:08:17.472Z,21.63
2022-12-20T14:11:15.112Z,23.13
2022-12-20T14:14:04.642Z,23.07
2022-12-20T14:16:51.635Z,23.10
2022-12-20T14:19:38.602Z,22.87
2022-12-20T14:22:25.548Z,22.33
2022-12-20T14:25:16.743Z,23.57
2022-12-20T14:28:05.034Z,25.80
2022-12-20T14:30:52.063Z,23.73
2022-12-20T14:33:41.126Z,25.33
2022-12-20T14:36:30.606Z,24.00
2022-12-20T14:39:28.585Z,24.93
2022-12-20T14:42:19.212Z,21.90
2022-12-20T14:45:18.829Z,22.97
2022-12-20T14:48:15.327Z,21.13
2022-12-20T14:51:05.672Z,22.10
2022-12-20T14:53:53.382Z,22.60
2022-12-20T14:56:46.631Z,25.30
2022-12-20T14:59:33.654Z,26.10
2022-12-20T15:02:51.755Z,23.10
2022-12-20T15:05:45.459Z,22.43
2022-12-20T15:08:33.956Z,25.40
2022-12-20T15:11:22.992Z,23.13
2022-12-20T15:14:23.045Z,21.03
2022-12-20T15:17:13.199Z,20.97
2022-12-20T15:20:00.889Z,21.17
2022-12-20T15:22:47.838Z,21.87
2022-12-20T15:25:43.043Z,27.10
2022-12-20T15:28:33.102Z,25.90
2022-12-20T15:31:25.994Z,25.30
2022-12-20T15:34:25.402Z,22.87
2022-12-20T15:37:18.246Z,24.27
2022-12-20T15:40:07.019Z,23.60
2022-12-20T15:42:53.969Z,23.80
2022-12-20T15:45:43.296Z,25.30
2022-12-20T15:48:30.243Z,23.10
2022-12-20T15:51:37.075Z,24.17
2022-12-20T15:54:28.248Z,22.50
2022-12-20T15:57:15.801Z,25.17
2022-12-20T16:00:04.734Z,26.03
2022-12-20T16:03:02.313Z,24.03
2022-12-20T16:05:51.309Z,25.47
2022-12-20T16:08:39.617Z,27.00
2022-12-20T16:11:29.819Z,28.90
2022-12-20T16:14:21.110Z,22.43
2022-12-20T16:17:13.987Z,25.87
2022-12-20T16:20:00.942Z,24.03
2022-12-20T16:22:47.899Z,22.87
2022-12-20T16:25:36.588Z,25.50
2022-12-20T16:28:23.504Z,24.47
2022-12-20T16:31:34.536Z,23.60
2022-12-20T16:34:21.786Z,24.63
2022-12-20T16:37:08.946Z,22.50
2022-12-20T16:39:55.909Z,22.90
2022-12-20T16:42:42.815Z,23.10
2022-12-20T16:45:31.907Z,24.67
2022-12-20T16:48:18.833Z,22.60
2022-12-20T16:51:27.267Z,23.20
2022-12-20T16:54:22.997Z,23.70
2022-12-20T16:57:10.224Z,23.90
2022-12-20T16:59:57.204Z,21.30
2022-12-20T17:02:44.655Z,23.50
2022-12-20T17:05:36.294Z,23.67
2022-12-20T17:11:30.532Z,24.40
2022-12-20T17:14:19.726Z,24.87
2022-12-20T17:17:07.710Z,26.23
2022-12-20T17:19:54.633Z,26.03
2022-12-20T17:22:42.421Z,21.27
2022-12-20T17:25:35.718Z,24.37
2022-12-20T17:28:23.371Z,25.40
2022-12-20T17:31:24.679Z,24.13
2022-12-20T17:34:19.997Z,24.30
2022-12-20T17:37:07.799Z,25.50
2022-12-20T17:39:54.743Z,25.27
2022-12-20T17:42:42.809Z,25.83
2022-12-20T17:45:36.160Z,24.43
2022-12-20T17:48:27.424Z,25.90
2022-12-20T17:51:25.598Z,28.90
2022-12-20T17:54:18.719Z,29.83
2022-12-20T17:57:05.714Z,35.23
2022-12-20T17:59:52.638Z,29.57
2022-12-20T18:02:40.369Z,27.63
2022-12-20T18:05:27.495Z,27.43
2022-12-20T18:08:14.441Z,26.63
2022-12-20T18:11:01.381Z,25.73
2022-12-20T18:13:50.984Z,26.17
2022-12-20T18:16:41.442Z,25.33
2022-12-20T18:19:28.421Z,23.30
2022-12-20T18:22:15.394Z,25.77
2022-12-20T18:25:09.058Z,28.77
2022-12-20T18:27:56.259Z,28.00
2022-12-20T18:30:43.897Z,25.93
2022-12-20T18:33:30.914Z,27.83
2022-12-20T18:36:23.617Z,25.33
2022-12-20T18:39:12.401Z,25.90
2022-12-20T18:41:59.329Z,27.00
2022-12-20T18:44:46.228Z,24.90
2022-12-20T18:47:33.140Z,25.13
2022-12-20T18:50:20.982Z,26.23
2022-12-20T18:53:07.890Z,26.87
2022-12-20T18:55:54.830Z,26.90
2022-12-20T18:58:43.442Z,26.00
2022-12-20T19:01:33.406Z,27.03
2022-12-20T19:04:24.646Z,25.53
2022-12-20T19:07:12.194Z,25.20
2022-12-20T19:09:59.119Z,25.13
2022-12-20T19:12:46.078Z,23.37
2022-12-20T19:15:32.991Z,25.50
2022-12-20T19:18:19.899Z,26.40
2022-12-20T19:21:12.948Z,28.40
2022-12-20T19:24:04.907Z,33.27
2022-12-20T19:26:51.839Z,30.13
2022-12-20T19:29:38.795Z,30.63
2022-12-20T19:32:25.747Z,29.20
2022-12-20T19:35:52.813Z,27.93
2022-12-20T19:38:19.892Z,24.80
2022-12-20T19:41:06.838Z,26.57
2022-12-20T19:43:54.221Z,26.23
2022-12-20T19:46:41.507Z,27.77
2022-12-20T19:49:28.453Z,27.80
2022-12-20T19:52:15.803Z,29.27
2022-12-20T19:55:02.724Z,28.73
2022-12-20T19:57:49.731Z,28.03
2022-12-20T20:00:36.627Z,28.47
2022-12-20T20:03:23.942Z,25.53
2022-12-20T20:06:11.188Z,28.43
2022-12-20T20:08:59.838Z,29.07
2022-12-20T20:11:46.861Z,26.77
2022-12-20T20:14:33.830Z,28.13
2022-12-20T20:17:21.019Z,28.63
2022-12-20T20:20:08.659Z,24.20
2022-12-20T20:22:55.619Z,24.87
2022-12-20T20:25:54.643Z,26.00
2022-12-20T20:28:45.000Z,26.80
2022-12-20T20:31:32.818Z,27.77
2022-12-20T20:34:19.748Z,24.43
2022-12-20T20:37:06.900Z,27.50
2022-12-20T20:39:53.799Z,27.67
2022-12-20T20:42:41.423Z,27.93
2022-12-20T20:45:29.252Z,26.87
2022-12-20T20:48:16.354Z,24.10
2022-12-20T20:51:04.081Z,25.87
2022-12-20T20:53:51.053Z,24.30
2022-12-20T20:56:37.964Z,25.17
2022-12-20T20:59:24.974Z,25.20
2022-12-20T21:02:14.166Z,24.53
2022-12-20T21:05:52.558Z,22.97
2022-12-20T21:08:08.350Z,25.30
2022-12-20T21:10:55.391Z,25.37
2022-12-20T21:13:42.411Z,25.63
2022-12-20T21:16:29.408Z,24.97
2022-12-20T21:19:16.398Z,23.37
2022-12-20T21:22:03.474Z,23.97
2022-12-20T21:24:50.441Z,24.80
2022-12-20T21:27:37.684Z,23.93
2022-12-20T21:30:25.170Z,23.47
2022-12-20T21:33:12.477Z,24.53
2022-12-20T21:36:07.878Z,23.43
2022-12-20T21:38:57.127Z,26.13
2022-12-20T21:41:44.163Z,24.43
2022-12-20T21:44:31.167Z,26.20
2022-12-20T21:47:18.136Z,28.87
2022-12-20T21:50:05.918Z,28.50
2022-12-20T21:52:52.828Z,25.13
2022-12-20T21:55:39.851Z,24.00
2022-12-20T21:58:29.166Z,23.53
2022-12-20T22:01:20.087Z,22.50
2022-12-20T22:04:07.179Z,23.83
2022-12-20T22:06:54.089Z,24.97
2022-12-20T22:09:41.020Z,25.43
2022-12-20T22:12:27.936Z,25.57
2022-12-20T22:15:14.908Z,26.27
2022-12-20T22:18:02.040Z,24.63
2022-12-20T22:20:49.096Z,29.00
2022-12-20T22:23:37.383Z,24.60
2022-12-20T22:26:26.742Z,24.23
2022-12-20T22:29:13.714Z,25.47
2022-12-20T22:32:00.812Z,23.37
2022-12-20T22:34:47.814Z,27.97
2022-12-20T22:37:34.744Z,25.83
2022-12-20T22:40:23.039Z,25.43
2022-12-20T22:43:09.953Z,24.10
2022-12-20T22:45:58.508Z,24.47
2022-12-20T22:48:46.342Z,27.70
2022-12-20T22:51:33.825Z,25.27
2022-12-20T22:54:20.936Z,25.33
2022-12-20T22:57:10.313Z,26.80
2022-12-20T22:59:58.784Z,25.50
2022-12-20T23:02:45.996Z,25.57
2022-12-20T23:05:33.805Z,27.07
2022-12-20T23:08:22.431Z,27.07
2022-12-20T23:11:45.568Z,25.63
2022-12-20T23:14:51.270Z,25.53
2022-12-20T23:17:38.256Z,23.23
2022-12-20T23:20:43.601Z,25.93
2022-12-20T23:23:30.570Z,23.10
2022-12-20T23:26:17.977Z,24.90
2022-12-20T23:29:06.020Z,23.87
2022-12-20T23:31:53.060Z,27.70
2022-12-20T23:34:39.969Z,27.17
2022-12-20T23:37:28.493Z,26.60
2022-12-20T23:40:17.236Z,27.23
2022-12-20T23:43:04.159Z,24.17
2022-12-20T23:45:51.228Z,25.43
2022-12-20T23:48:38.540Z,27.33
2022-12-20T23:51:25.488Z,25.07
2022-12-20T23:54:12.612Z,26.37
2022-12-20T23:56:59.581Z,26.33
2022-12-20T23:59:46.549Z,27.27
